Time;durP1;ratioP1;P1;durP2;ratioP2;P2;SDS_P1;SDS_P2;PMS_P1;PMS_P2;Temp;Humidity;BMP_temperature;BMP_pressure;BME280_temperature;BME280_humidity;BME280_pressure;Samples;Min_cycle;Max_cycle;Signal;HPM_P1;HPM_P2
2021/04/01 00:01:09;;;;;;;3.65;1.00;;;;;;;23.17;42.73;101840.63;5071920;28;20132;-63
2021/04/01 00:03:36;;;;;;;4.75;1.30;;;;;;;23.22;42.95;101836.34;5071724;28;20048;-62
2021/04/01 00:06:02;;;;;;;5.25;1.58;;;;;;;23.19;43.23;101835.84;5071839;28;20483;-62
2021/04/01 00:08:28;;;;;;;3.78;1.02;;;;;;;23.21;43.49;101839.28;5072295;28;20068;-62
2021/04/01 00:10:53;;;;;;;3.75;1.23;;;;;;;23.27;44.12;101835.78;5072048;28;20429;-63
2021/04/01 00:13:19;;;;;;;4.70;1.13;;;;;;;23.27;44.98;101827.56;5071888;28;20031;-63
2021/04/01 00:15:45;;;;;;;2.15;1.17;;;;;;;23.15;44.69;101829.84;5071888;28;20028;-63
2021/04/01 00:18:21;;;;;;;5.28;1.63;;;;;;;23.14;45.65;101827.28;5071955;28;20028;-63
2021/04/01 00:20:47;;;;;;;5.22;1.30;;;;;;;23.11;45.15;101829.34;5073929;28;20049;-62
2021/04/01 00:23:13;;;;;;;2.53;1.30;;;;;;;23.15;45.59;101818.88;5075469;28;20025;-62
2021/04/01 00:25:39;;;;;;;6.63;1.90;;;;;;;23.16;45.30;101819.72;5075605;28;20057;-62
2021/04/01 00:28:05;;;;;;;4.80;1.48;;;;;;;23.18;46.14;101821.28;5075311;28;20025;-63
2021/04/01 00:30:30;;;;;;;4.13;1.10;;;;;;;23.19;45.03;101822.13;5075634;28;20024;-63
2021/04/01 00:32:55;;;;;;;4.70;1.35;;;;;;;23.19;46.13;101825.72;5057035;28;20424;-63
2021/04/01 00:35:21;;;;;;;6.05;1.50;;;;;;;23.19;45.99;101819.41;5075362;28;20486;-62
2021/04/01 00:37:46;;;;;;;3.97;1.55;;;;;;;23.25;45.07;101832.38;5075270;28;20021;-62
2021/04/01 00:40:12;;;;;;;4.10;1.33;;;;;;;23.21;47.02;101836.53;5075191;28;20463;-62
2021/04/01 00:42:38;;;;;;;2.80;1.23;;;;;;;23.14;47.15;101839.13;5075327;28;20017;-63
2021/04/01 00:45:09;;;;;;;6.22;1.40;;;;;;;23.11;45.54;101828.50;5075129;28;20032;-63
2021/04/01 00:47:40;;;;;;;4.68;1.85;;;;;;;23.08;44.61;101824.25;5075167;28;20024;-63
2021/04/01 00:50:08;;;;;;;3.17;1.10;;;;;;;23.10;44.66;101824.91;5074907;28;20029;-63
2021/04/01 00:52:33;;;;;;;4.30;1.35;;;;;;;23.09;43.74;101814.97;5075064;28;20046;-63
2021/04/01 00:55:00;;;;;;;4.45;1.13;;;;;;;23.11;44.91;101821.13;5075081;28;20428;-63
2021/04/01 00:57:26;;;;;;;3.88;1.65;;;;;;;23.12;44.31;101824.72;5075012;28;20036;-63
2021/04/01 00:59:51;;;;;;;5.80;1.85;;;;;;;23.12;44.25;101835.69;5056932;28;20028;-63
2021/04/01 01:02:17;;;;;;;2.22;0.85;;;;;;;23.14;44.71;101832.78;5074778;28;20083;-63
2021/04/01 01:04:43;;;;;;;4.05;1.20;;;;;;;23.11;44.67;101831.25;5074973;28;20074;-63
2021/04/01 01:07:08;;;;;;;4.80;1.40;;;;;;;23.07;44.62;101824.41;5074611;28;20051;-63
2021/04/01 01:09:34;;;;;;;3.80;1.27;;;;;;;23.04;45.95;101827.53;5074806;28;20032;-63
2021/04/01 01:11:59;;;;;;;5.68;1.77;;;;;;;23.03;44.87;101828.56;5074528;28;20024;-63
2021/04/01 01:14:24;;;;;;;3.58;1.23;;;;;;;22.99;44.08;101829.94;5074695;28;20044;-63
2021/04/01 01:16:50;;;;;;;5.82;1.95;;;;;;;23.06;44.79;101825.47;5074783;28;20037;-63
2021/04/01 01:19:17;;;;;;;3.88;1.52;;;;;;;23.07;43.26;101825.28;5074480;28;20052;-63
2021/04/01 01:21:43;;;;;;;4.13;1.35;;;;;;;23.04;43.09;101813.81;5074458;28;20030;-63
2021/04/01 01:24:16;;;;;;;3.92;1.30;;;;;;;23.06;44.05;101828.19;5074320;28;20392;-61
2021/04/01 01:26:42;;;;;;;4.53;1.55;;;;;;;23.05;44.01;101823.75;5056610;28;20032;-60
2021/04/01 01:29:09;;;;;;;4.57;1.10;;;;;;;23.06;44.58;101820.81;5074230;28;20024;-62
2021/04/01 01:31:39;;;;;;;5.50;1.15;;;;;;;23.02;43.31;101824.97;5073462;28;20020;-61
2021/04/01 01:34:04;;;;;;;5.00;1.70;;;;;;;22.97;44.61;101821.03;5073443;28;20400;-61
2021/04/01 01:36:30;;;;;;;5.28;1.40;;;;;;;22.95;44.48;101823.94;5074515;28;20036;-62
2021/04/01 01:38:55;;;;;;;4.60;1.52;;;;;;;22.96;42.81;101814.69;5074160;28;20036;-61
2021/04/01 01:41:20;;;;;;;2.70;1.05;;;;;;;23.02;44.32;101818.63;5074120;28;20150;-61
2021/04/01 01:43:46;;;;;;;4.70;1.60;;;;;;;23.00;42.86;101821.50;5073999;28;20044;-61
2021/04/01 01:46:11;;;;;;;3.35;1.20;;;;;;;22.95;42.37;101823.94;5073892;28;20348;-61
2021/04/01 01:48:36;;;;;;;3.42;1.35;;;;;;;23.03;42.76;101826.66;5074111;28;20542;-61
2021/04/01 01:51:02;;;;;;;5.07;1.58;;;;;;;23.07;43.34;101830.75;5073861;28;20024;-60
2021/04/01 01:53:28;;;;;;;2.50;1.10;;;;;;;22.99;43.83;101824.44;5055881;28;20035;-60
2021/04/01 01:55:53;;;;;;;4.50;1.30;;;;;;;22.96;42.57;101824.81;5055987;28;20055;-60
2021/04/01 01:58:21;;;;;;;6.35;1.77;;;;;;;22.98;43.32;101829.06;5073695;28;20035;-61
2021/04/01 02:00:50;;;;;;;6.32;1.58;;;;;;;22.89;42.95;101832.03;5073759;28;20021;-61
2021/04/01 02:03:15;;;;;;;3.20;1.20;;;;;;;22.90;43.04;101834.59;5055427;28;20282;-61
2021/04/01 02:05:41;;;;;;;4.30;1.60;;;;;;;22.91;43.23;101830.84;5073433;28;20032;-61
2021/04/01 02:08:09;;;;;;;3.45;1.30;;;;;;;22.89;43.86;101835.66;5073160;28;20056;-61
2021/04/01 02:10:45;;;;;;;3.42;0.90;;;;;;;22.97;44.44;101834.75;5073659;28;20028;-60
2021/04/01 02:13:13;;;;;;;3.75;1.42;;;;;;;22.98;45.33;101839.19;5073299;28;20521;-60
2021/04/01 02:15:41;;;;;;;2.97;1.30;;;;;;;23.01;46.21;101834.22;5073429;28;20530;-61
2021/04/01 02:18:13;;;;;;;2.95;1.25;;;;;;;22.97;47.45;101826.50;5073120;28;20036;-60
2021/04/01 02:20:41;;;;;;;3.10;1.05;;;;;;;23.00;46.46;101829.75;5073439;28;20024;-61
2021/04/01 02:23:14;;;;;;;3.30;1.20;;;;;;;22.95;45.90;101834.91;5055246;28;20024;-60
2021/04/01 02:25:41;;;;;;;3.33;1.17;;;;;;;22.94;46.02;101837.84;5073221;28;20070;-60
2021/04/01 02:28:07;;;;;;;3.95;1.40;;;;;;;22.91;46.57;101844.53;5072913;28;20034;-60
2021/04/01 02:30:34;;;;;;;3.60;1.30;;;;;;;22.93;46.26;101845.22;5073230;28;20024;-60
2021/04/01 02:32:59;;;;;;;4.55;1.92;;;;;;;22.94;45.53;101848.81;5072399;28;20037;-60
2021/04/01 02:35:25;;;;;;;3.75;1.17;;;;;;;22.99;45.23;101855.47;5073006;28;20035;-60
2021/04/01 02:37:50;;;;;;;5.68;1.67;;;;;;;23.00;45.06;101848.94;5072811;28;20032;-60
2021/04/01 02:40:16;;;;;;;3.30;1.13;;;;;;;23.00;46.68;101848.94;5072826;28;20502;-60
2021/04/01 02:42:41;;;;;;;2.78;0.98;;;;;;;22.95;45.08;101845.88;5072974;28;20039;-61
2021/04/01 02:45:09;;;;;;;2.67;1.15;;;;;;;23.01;45.81;101847.06;5072780;28;20035;-61
2021/04/01 02:47:34;;;;;;;3.55;1.40;;;;;;;22.99;46.14;101847.22;5072826;28;20035;-61
2021/04/01 02:49:59;;;;;;;3.92;1.17;;;;;;;22.89;46.29;101846.63;5054690;28;20032;-61
2021/04/01 02:52:25;;;;;;;5.82;1.42;;;;;;;22.91;44.64;101849.16;5072735;28;20024;-61
2021/04/01 02:54:50;;;;;;;3.42;1.20;;;;;;;22.94;44.18;101854.28;5054988;28;20028;-61
2021/04/01 02:57:17;;;;;;;2.30;1.15;;;;;;;22.93;43.38;101847.97;5072603;28;20111;-61
2021/04/01 02:59:45;;;;;;;4.28;1.20;;;;;;;22.93;43.25;101838.88;5072586;28;20017;-61
2021/04/01 03:02:11;;;;;;;4.85;2.00;;;;;;;22.94;43.60;101838.69;5072285;28;20111;-61
2021/04/01 03:04:37;;;;;;;4.20;1.13;;;;;;;22.94;44.50;101846.91;5054760;28;20020;-61
2021/04/01 03:07:03;;;;;;;2.47;1.00;;;;;;;22.95;45.11;101856.00;5072573;28;20047;-61
2021/04/01 03:09:28;;;;;;;3.67;1.10;;;;;;;22.96;44.75;101852.22;5072575;28;20459;-61
2021/04/01 03:11:54;;;;;;;3.50;1.13;;;;;;;22.93;46.20;101853.44;5072387;28;20066;-61
2021/04/01 03:14:19;;;;;;;4.75;1.98;;;;;;;22.87;45.36;101845.94;5072453;28;20478;-61
2021/04/01 03:16:44;;;;;;;4.63;1.48;;;;;;;22.87;45.16;101843.19;5072625;28;20048;-61
2021/04/01 03:19:10;;;;;;;4.68;1.10;;;;;;;22.91;46.21;101844.53;5072357;28;20467;-61
2021/04/01 03:21:35;;;;;;;3.75;1.60;;;;;;;22.90;44.07;101848.31;5072495;28;20052;-61
2021/04/01 03:24:00;;;;;;;3.05;1.10;;;;;;;22.93;45.11;101847.97;5072287;28;20264;-61
2021/04/01 03:26:26;;;;;;;2.38;1.10;;;;;;;22.96;45.17;101857.72;5072395;28;20028;-61
2021/04/01 03:28:52;;;;;;;4.57;1.30;;;;;;;22.98;46.04;101858.38;5072532;28;20058;-61
2021/04/01 03:31:17;;;;;;;3.78;1.50;;;;;;;22.90;45.40;101848.31;5072070;28;20532;-61
2021/04/01 03:33:42;;;;;;;2.72;1.27;;;;;;;22.98;45.03;101853.75;5072065;28;20040;-61
2021/04/01 03:36:08;;;;;;;4.32;1.40;;;;;;;22.92;44.97;101849.00;5072117;28;20077;-61
2021/04/01 03:38:33;;;;;;;3.55;1.15;;;;;;;22.89;45.26;101846.63;5072438;28;20025;-61
2021/04/01 03:40:59;;;;;;;3.80;1.13;;;;;;;22.83;45.30;101841.81;5072181;28;20510;-61
2021/04/01 03:43:26;;;;;;;4.13;1.48;;;;;;;22.88;44.48;101849.53;5072233;28;20066;-61
2021/04/01 03:45:51;;;;;;;4.68;1.13;;;;;;;22.89;44.35;101863.06;5071935;28;20060;-61
2021/04/01 03:48:16;;;;;;;5.35;1.25;;;;;;;22.88;45.06;101861.34;5072087;28;20055;-61
2021/04/01 03:50:42;;;;;;;5.05;1.50;;;;;;;22.91;44.25;101844.53;5072307;28;20036;-61
2021/04/01 03:53:07;;;;;;;6.05;1.23;;;;;;;22.89;43.83;101860.31;5071951;28;20414;-61
2021/04/01 03:55:38;;;;;;;4.40;1.25;;;;;;;22.95;43.81;101862.34;5073804;28;20033;-62
2021/04/01 04:00:46;;;;;;;3.28;1.05;;;;;;;22.92;44.51;101870.94;5076355;28;20020;-61
2021/04/01 04:10:47;;;;;;;5.03;1.20;;;;;;;25.01;40.35;101867.78;5076518;28;20028;-61
2021/04/01 04:13:23;;;;;;;4.05;1.10;;;;;;;25.18;40.58;101865.66;5075515;28;20451;-61
2021/04/01 04:15:49;;;;;;;5.72;1.33;;;;;;;25.50;41.23;101878.97;5075684;28;20030;-61
2021/04/01 04:18:14;;;;;;;2.28;0.90;;;;;;;25.38;40.29;101872.28;5075530;28;20028;-61
2021/04/01 04:20:39;;;;;;;2.25;1.10;;;;;;;25.37;42.45;101867.84;5075794;28;20028;-61
2021/04/01 04:23:06;;;;;;;2.92;0.80;;;;;;;25.39;41.21;101860.22;5057502;28;20020;-61
2021/04/01 04:25:31;;;;;;;3.30;1.00;;;;;;;25.52;41.95;101869.66;5075630;28;20028;-61
2021/04/01 04:30:37;;;;;;;4.38;1.20;;;;;;;25.53;41.63;101874.13;5075888;28;20021;-61
2021/04/01 04:33:02;;;;;;;4.35;1.15;;;;;;;25.72;41.11;101870.81;5074807;28;20059;-61
2021/04/01 04:35:28;;;;;;;7.07;1.33;;;;;;;25.72;39.98;101876.31;5075374;28;20104;-61
2021/04/01 04:37:53;;;;;;;2.40;1.15;;;;;;;25.77;40.22;101879.31;5075188;28;20028;-61
2021/04/01 04:40:19;;;;;;;3.75;1.15;;;;;;;25.77;40.49;101873.81;5075237;28;20029;-61
2021/04/01 04:42:44;;;;;;;2.58;1.00;;;;;;;25.83;40.68;101878.53;5075336;28;20058;-61
2021/04/01 04:45:10;;;;;;;3.42;1.15;;;;;;;25.90;40.24;101882.22;5075082;28;20435;-61
2021/04/01 04:47:35;;;;;;;6.88;1.10;;;;;;;26.05;40.65;101876.63;5075205;28;20020;-61
2021/04/01 04:50:01;;;;;;;3.10;0.75;;;;;;;26.02;41.52;101883.38;5074994;28;20509;-61
2021/04/01 04:52:27;;;;;;;1.83;0.82;;;;;;;26.09;39.50;101884.31;5057130;28;20448;-62
2021/04/01 04:54:53;;;;;;;3.10;0.90;;;;;;;26.16;40.37;101897.28;5075431;28;20028;-61
2021/04/01 04:57:30;;;;;;;1.90;0.80;;;;;;;26.20;40.05;101890.31;5074874;28;20395;-61
2021/04/01 05:00:11;;;;;;;2.15;0.85;;;;;;;26.25;39.84;101898.84;5074837;28;20036;-61
2021/04/01 05:05:21;;;;;;;3.03;0.90;;;;;;;26.27;39.40;101882.97;5075155;28;20089;-61
2021/04/01 05:07:46;;;;;;;2.47;0.80;;;;;;;26.23;39.88;101884.44;5073455;28;20046;-62
2021/04/01 05:10:12;;;;;;;2.80;0.93;;;;;;;26.17;38.89;101885.19;5056613;28;20031;-62
2021/04/01 05:12:37;;;;;;;2.28;1.20;;;;;;;26.30;39.24;101879.81;5056829;28;20282;-62
2021/04/01 05:15:02;;;;;;;3.00;1.30;;;;;;;26.34;39.64;101887.47;5074604;28;20134;-61
2021/04/01 05:17:28;;;;;;;1.98;0.80;;;;;;;26.34;38.41;101892.13;5056713;28;20379;-62
2021/04/01 05:19:59;;;;;;;2.10;0.75;;;;;;;26.51;38.04;101892.72;5074473;28;20028;-61
2021/04/01 05:25:21;;;;;;;2.35;0.95;;;;;;;26.35;39.87;101893.88;4992626;28;20108;-61
2021/04/01 05:27:54;;;;;;;2.00;0.70;;;;;;;26.48;40.13;101888.47;4992784;28;20100;-61
2021/04/01 05:30:20;;;;;;;1.90;1.15;;;;;;;26.45;38.85;101883.34;4992685;28;20038;-61
2021/04/01 05:32:46;;;;;;;1.50;0.70;;;;;;;26.43;38.29;101885.47;4978559;28;20073;-62
2021/04/01 05:35:15;;;;;;;4.18;0.85;;;;;;;26.33;39.27;101884.91;4973034;28;20066;-61
2021/04/01 05:37:41;;;;;;;2.35;0.88;;;;;;;26.54;38.35;101887.69;4973174;28;20074;-61
2021/04/01 05:40:09;;;;;;;2.17;0.82;;;;;;;26.53;38.44;101891.47;4972938;28;20501;-62
2021/04/01 05:42:39;;;;;;;3.92;1.05;;;;;;;26.61;37.91;101899.59;4973174;28;20093;-61
2021/04/01 05:47:39;;;;;;;2.45;0.73;;;;;;;26.50;38.58;101897.38;4972929;28;20030;-62
2021/04/01 05:58:29;;;;;;;5.40;1.10;;;;;;;26.62;39.01;101884.75;4972640;28;20054;-62
2021/04/01 06:06:41;;;;;;;1.35;0.60;;;;;;;26.65;39.69;101880.75;5073289;28;20036;-61
2021/04/01 06:09:19;;;;;;;1.98;0.77;;;;;;;26.79;40.23;101895.47;5076597;28;20036;-61
2021/04/01 06:11:49;;;;;;;3.38;0.90;;;;;;;26.76;39.58;101899.50;5093674;28;20032;-62
2021/04/01 06:14:18;;;;;;;2.15;0.80;;;;;;;26.81;40.00;101901.63;5093608;28;20039;-61
2021/04/01 06:16:45;;;;;;;1.15;0.65;;;;;;;26.81;39.79;101893.34;5093839;28;20028;-61
2021/04/01 06:19:17;;;;;;;1.58;0.55;;;;;;;26.72;39.35;101905.63;5093217;28;20066;-62
2021/04/01 06:21:45;;;;;;;2.92;1.20;;;;;;;26.69;39.48;101885.63;5077679;28;20440;-61
2021/04/01 06:24:25;;;;;;;1.98;0.85;;;;;;;26.68;40.13;101900.47;5072424;28;20033;-61
2021/04/01 06:26:56;;;;;;;1.88;0.60;;;;;;;26.65;40.17;101900.91;5073374;28;20028;-61
2021/04/01 06:29:25;;;;;;;1.58;0.68;;;;;;;26.79;40.03;101901.00;5073170;28;20039;-61
2021/04/01 06:31:51;;;;;;;3.13;0.93;;;;;;;26.94;39.09;101904.47;5072460;28;20471;-62
2021/04/01 06:34:29;;;;;;;5.50;2.13;;;;;;;26.86;39.04;101902.72;5038769;28;20452;-61
2021/04/01 06:36:55;;;;;;;2.92;1.10;;;;;;;26.81;40.71;101904.41;5033021;28;20021;-61
2021/04/01 06:39:21;;;;;;;2.95;0.90;;;;;;;26.91;38.49;101900.22;5033156;28;20025;-61
2021/04/01 06:41:49;;;;;;;3.92;0.60;;;;;;;26.68;39.76;101911.53;5031826;28;20025;-61
2021/04/01 06:44:26;;;;;;;2.95;0.63;;;;;;;26.79;38.63;101917.53;5032927;28;20518;-62
2021/04/01 06:47:03;;;;;;;3.00;1.00;;;;;;;26.83;39.69;101910.56;5033098;28;20427;-61
2021/04/01 06:49:56;;;;;;;3.90;1.38;;;;;;;26.87;37.93;101920.13;5030684;28;20052;-62
2021/04/01 06:52:25;;;;;;;2.35;0.82;;;;;;;26.74;38.09;101911.78;5032062;28;20487;-61
2021/04/01 06:54:59;;;;;;;2.95;1.15;;;;;;;26.91;37.44;101921.44;5031705;28;20021;-61
2021/04/01 07:03:17;;;;;;;1.55;0.73;;;;;;;26.83;38.82;101916.06;5011055;28;20546;-63
2021/04/01 07:05:51;;;;;;;2.05;0.77;;;;;;;26.76;39.70;101923.47;5008287;28;20116;-61
2021/04/01 07:08:20;;;;;;;1.55;0.70;;;;;;;26.75;39.73;101917.09;5013456;28;20041;-61
2021/04/01 07:11:01;;;;;;;2.05;1.00;;;;;;;26.90;38.89;101925.28;5010621;28;20049;-61
2021/04/01 07:13:31;;;;;;;5.85;1.17;;;;;;;26.97;38.70;101921.47;4996536;28;20088;-61
2021/04/01 07:16:09;;;;;;;2.30;0.98;;;;;;;26.92;38.55;101920.41;5001257;28;20029;-61
2021/04/01 07:32:50;;;;;;;2.30;0.80;;;;;;;26.62;38.12;101939.91;5004165;28;20500;-62
2021/04/01 07:48:42;;;;;;;2.63;0.50;;;;;;;26.48;38.79;101949.13;5026421;28;20437;-62
2021/04/01 07:51:23;;;;;;;2.28;0.57;;;;;;;26.43;38.07;101935.09;5025116;28;20031;-62
2021/04/01 07:53:53;;;;;;;3.05;0.73;;;;;;;25.42;40.22;101952.59;5017624;28;20040;-61
2021/04/01 07:56:22;;;;;;;1.45;0.50;;;;;;;25.31;41.99;101956.66;5024015;28;20022;-63
2021/04/01 07:59:06;;;;;;;2.47;0.93;;;;;;;25.21;43.39;101944.25;5020387;28;20357;-62
2021/04/01 08:01:47;;;;;;;;;;;;;;;25.12;42.45;101940.75;5016821;28;20027;-65
2021/04/01 08:04:13;;;;;;;3.05;0.85;;;;;;;25.09;43.10;101932.88;5022251;28;19960;-65
2021/04/01 08:06:38;;;;;;;2.60;0.80;;;;;;;25.06;43.86;101942.38;5033262;28;20091;-65
2021/04/01 08:09:08;;;;;;;2.55;1.05;;;;;;;25.00;43.96;101945.84;5021395;28;20426;-63
2021/04/01 08:11:39;;;;;;;2.85;0.80;;;;;;;24.99;44.47;101943.25;5023153;28;20022;-63
2021/04/01 08:14:18;;;;;;;3.40;1.10;;;;;;;24.99;44.21;101937.75;5024038;28;20040;-63
2021/04/01 08:16:58;;;;;;;1.65;0.63;;;;;;;24.95;44.28;101934.53;5026707;28;20354;-64
2021/04/01 08:19:26;;;;;;;2.22;0.85;;;;;;;24.94;44.25;101932.84;5023876;28;20026;-64
2021/04/01 08:21:53;;;;;;;2.92;0.85;;;;;;;24.88;44.29;101939.97;5023040;28;20488;-67
2021/04/01 08:24:32;;;;;;;2.75;1.08;;;;;;;24.85;44.69;101940.31;5033441;28;20032;-64
2021/04/01 08:27:43;;;;;;;2.95;0.80;;;;;;;24.73;44.90;101936.34;5035503;28;20025;-64
2021/04/01 08:35:25;;;;;;;3.92;0.93;;;;;;;24.76;44.53;101943.34;5022131;28;20401;-64
2021/04/01 08:40:26;;;;;;;2.95;0.95;;;;;;;24.72;44.11;101937.38;5030167;28;20043;-65
2021/04/01 08:43:07;;;;;;;2.50;0.77;;;;;;;24.72;43.22;101931.88;5032656;28;20050;-62
2021/04/01 08:45:46;;;;;;;3.08;0.70;;;;;;;24.79;44.46;101930.06;5028133;28;20056;-65
2021/04/01 08:48:30;;;;;;;2.35;0.98;;;;;;;24.76;43.62;101938.69;5025433;28;20429;-65
2021/04/01 08:51:33;;;;;;;4.32;1.15;;;;;;;24.75;43.42;101948.00;5020061;28;20465;-63
2021/04/01 08:54:13;;;;;;;4.72;1.00;;;;;;;25.67;41.51;101945.69;5023957;28;20384;-63
2021/04/01 08:57:04;;;;;;;4.65;1.70;;;;;;;25.85;41.29;101950.78;5035516;28;20074;-61
2021/04/01 08:59:57;;;;;;;4.40;1.00;;;;;;;26.10;40.83;101951.28;5024476;28;20053;-61
2021/04/01 09:02:23;;;;;;;2.10;0.70;;;;;;;26.08;40.44;101954.25;5023451;28;20026;-65
2021/04/01 09:04:51;;;;;;;4.85;1.27;;;;;;;25.97;40.68;101957.50;5030665;28;20108;-64
2021/04/01 09:07:42;;;;;;;1.95;0.98;;;;;;;26.20;39.23;101961.97;5019604;28;20025;-66
2021/04/01 09:10:16;;;;;;;4.40;1.05;;;;;;;26.15;39.98;101970.84;5031621;28;20465;-65
2021/04/01 09:12:50;;;;;;;3.40;0.90;;;;;;;26.17;38.27;101941.16;5046401;28;20499;-63
2021/04/01 09:15:21;;;;;;;3.08;0.85;;;;;;;26.12;39.44;101960.22;5038962;28;20037;-61
2021/04/01 09:17:47;;;;;;;2.58;0.75;;;;;;;26.06;38.87;101961.00;5037430;28;20040;-62
2021/04/01 09:20:13;;;;;;;1.23;0.57;;;;;;;26.04;40.09;101958.44;5037361;28;20404;-60
2021/04/01 09:22:43;;;;;;;3.30;0.50;;;;;;;25.93;39.63;101956.19;5038367;28;20025;-59
2021/04/01 09:25:09;;;;;;;3.17;0.68;;;;;;;26.05;39.34;101954.66;5034068;28;20029;-61
2021/04/01 09:27:47;;;;;;;5.53;1.38;;;;;;;26.24;40.09;101957.78;5037476;28;20056;-60
2021/04/01 09:30:13;;;;;;;8.07;1.20;;;;;;;26.33;39.69;101956.59;5027420;28;20033;-59
2021/04/01 09:32:39;;;;;;;3.95;0.80;;;;;;;26.33;41.87;101953.84;5037526;28;20038;-59
2021/04/01 09:35:07;;;;;;;4.32;1.27;;;;;;;26.39;40.55;101958.63;5079996;28;20052;-60
2021/04/01 09:37:32;;;;;;;4.50;0.80;;;;;;;26.31;41.61;101954.03;5076333;28;20110;-59
2021/04/01 09:40:12;;;;;;;3.47;0.93;;;;;;;26.43;41.71;101937.00;5077812;28;20116;-60
2021/04/01 09:42:42;;;;;;;3.75;1.00;;;;;;;26.40;41.30;101941.00;5059778;28;20367;-59
2021/04/01 09:45:11;;;;;;;4.25;1.42;;;;;;;26.37;44.38;101935.88;5086252;28;20099;-59
2021/04/01 09:47:46;;;;;;;3.75;1.17;;;;;;;26.50;43.53;101938.75;5076889;28;20109;-61
2021/04/01 09:50:14;;;;;;;4.90;0.98;;;;;;;26.45;44.93;101924.72;5075457;28;20032;-59
2021/04/01 09:52:41;;;;;;;4.47;1.20;;;;;;;26.33;43.79;101929.88;5076286;28;20024;-61
2021/04/01 09:55:12;;;;;;;6.90;1.05;;;;;;;26.46;43.64;101922.81;5073131;28;20099;-60
2021/04/01 09:57:49;;;;;;;2.30;0.85;;;;;;;26.42;43.75;101922.38;5075279;28;20032;-61
2021/04/01 10:00:31;;;;;;;4.03;1.20;;;;;;;26.51;44.07;101918.38;5073640;28;20024;-64
2021/04/01 10:03:12;;;;;;;3.95;0.80;;;;;;;26.51;43.54;101909.28;5075746;28;20039;-68
2021/04/01 10:05:44;;;;;;;4.15;1.10;;;;;;;26.41;43.53;101928.94;5063859;28;20020;-66
2021/04/01 10:08:11;;;;;;;2.05;0.85;;;;;;;26.30;43.24;101929.44;5075120;28;20061;-66
2021/04/01 10:10:45;;;;;;;4.03;0.75;;;;;;;26.45;44.19;101921.09;5081299;28;20075;-63
2021/04/01 10:13:18;;;;;;;6.05;1.10;;;;;;;26.77;42.65;101916.91;5085829;28;20116;-68
2021/04/01 10:15:44;;;;;;;1.85;1.05;;;;;;;26.81;43.44;101923.72;5069333;28;20111;-63
2021/04/01 10:18:13;;;;;;;1.33;0.40;;;;;;;26.51;42.85;101937.69;5072543;28;20124;-65
2021/04/01 10:20:39;;;;;;;2.97;1.00;;;;;;;26.50;43.41;101924.97;5074673;28;20520;-64
2021/04/01 10:23:08;;;;;;;1.75;0.80;;;;;;;26.58;42.28;101933.09;5093329;28;20024;-64
2021/04/01 10:25:49;;;;;;;2.75;0.60;;;;;;;26.59;43.12;101936.72;5074643;28;20134;-62
2021/04/01 10:28:32;;;;;;;3.35;0.90;;;;;;;26.53;41.83;101929.22;5072923;28;20074;-63
2021/04/01 10:31:08;;;;;;;3.03;0.43;;;;;;;26.57;42.27;101939.66;5071820;28;20028;-65
2021/04/01 10:33:40;;;;;;;2.72;0.90;;;;;;;26.52;41.18;101928.38;5073168;28;20288;-63
2021/04/01 10:36:09;;;;;;;4.15;0.90;;;;;;;26.52;41.82;101931.13;5072787;28;20032;-64
2021/04/01 10:38:36;;;;;;;3.17;0.75;;;;;;;26.61;42.00;101932.69;5073135;28;20617;-62
2021/04/01 10:41:11;;;;;;;3.97;0.80;;;;;;;26.51;41.29;101931.31;5073268;28;20024;-63
2021/04/01 10:43:41;;;;;;;2.70;0.60;;;;;;;26.42;41.95;101938.91;5072898;28;20020;-62
2021/04/01 10:46:15;;;;;;;1.42;0.60;;;;;;;26.63;40.67;101944.38;5073282;28;20020;-63
2021/04/01 10:48:50;;;;;;;2.42;0.75;;;;;;;26.48;41.87;101932.59;5073030;28;20025;-63
2021/04/01 10:51:17;;;;;;;2.63;0.85;;;;;;;26.50;40.66;101941.50;5070709;28;20037;-64
2021/04/01 10:53:43;;;;;;;1.63;0.70;;;;;;;26.45;40.27;101933.00;5069121;28;20028;-63
2021/04/01 10:56:11;;;;;;;2.53;0.70;;;;;;;26.42;40.10;101933.38;5071991;28;20028;-63
2021/04/01 10:58:53;;;;;;;1.60;0.60;;;;;;;26.43;41.26;101940.63;5072694;28;20035;-65
2021/04/01 11:01:38;;;;;;;1.35;0.60;;;;;;;26.66;39.50;101940.38;5071418;28;20460;-65
2021/04/01 11:04:05;;;;;;;2.22;0.77;;;;;;;26.82;38.71;101928.16;5071714;28;20070;-64
2021/04/01 11:06:33;;;;;;;5.20;0.77;;;;;;;26.73;39.76;101923.88;5071829;28;20024;-63
2021/04/01 11:09:00;;;;;;;2.83;0.60;;;;;;;26.74;39.40;101925.59;5072271;28;20103;-62
2021/04/01 11:14:23;;;;;;;4.65;1.00;;;;;;;26.72;39.35;101930.44;5068729;28;20173;-63
2021/04/01 11:16:52;;;;;;;2.63;1.13;;;;;;;26.67;40.31;101940.16;5046850;28;20070;-62
2021/04/01 11:19:18;;;;;;;2.72;1.17;;;;;;;26.66;39.86;101935.69;5071653;28;20111;-62
2021/04/01 11:21:45;;;;;;;3.78;0.90;;;;;;;26.60;40.50;101941.16;5071674;28;20028;-64
2021/04/01 11:24:11;;;;;;;4.40;1.17;;;;;;;26.78;39.29;101937.91;5072027;28;20036;-62
2021/04/01 11:26:37;;;;;;;4.50;1.00;;;;;;;26.69;39.71;101929.78;5072159;28;20422;-64
2021/04/01 11:29:11;;;;;;;2.58;1.30;;;;;;;26.74;40.12;101943.00;5071395;28;20028;-63
2021/04/01 11:31:37;;;;;;;3.85;1.30;;;;;;;26.67;39.43;101931.88;5069940;28;20126;-64
2021/04/01 11:34:03;;;;;;;4.03;1.48;;;;;;;26.60;39.63;101936.50;5070244;28;20044;-62
2021/04/01 11:36:31;;;;;;;5.25;1.30;;;;;;;26.67;38.92;101936.56;5070522;28;20478;-63
2021/04/01 11:38:58;;;;;;;5.13;1.10;;;;;;;26.63;39.28;101927.81;5070569;28;20025;-62
2021/04/01 11:41:26;;;;;;;2.88;1.13;;;;;;;26.60;39.61;101919.09;5070513;28;20145;-64
2021/04/01 11:43:54;;;;;;;4.88;1.25;;;;;;;26.71;39.33;101921.31;5070415;28;20029;-62
2021/04/01 11:46:20;;;;;;;4.40;1.15;;;;;;;26.66;40.23;101908.13;5070304;28;20060;-62
2021/04/01 11:48:48;;;;;;;5.78;1.45;;;;;;;26.72;40.02;101897.34;5070848;28;20486;-63
2021/04/01 11:51:23;;;;;;;5.45;1.13;;;;;;;26.73;40.41;101893.53;5065279;28;20025;-62
2021/04/01 11:53:49;;;;;;;4.35;1.10;;;;;;;26.78;41.03;101894.63;5071452;28;20398;-63
2021/04/01 11:56:15;;;;;;;5.82;1.00;;;;;;;26.78;41.05;101891.00;5069885;28;20099;-62
2021/04/01 11:58:41;;;;;;;2.55;1.08;;;;;;;26.71;40.44;101898.38;5069965;28;20064;-62
2021/04/01 12:01:26;;;;;;;3.72;0.70;;;;;;;26.71;40.91;101879.06;5053428;28;20529;-62
2021/04/01 12:04:07;;;;;;;2.88;0.98;;;;;;;26.92;40.68;101896.41;5071746;28;20024;-61
2021/04/01 12:06:33;;;;;;;3.22;0.88;;;;;;;26.91;41.16;101888.34;5071883;28;20626;-62
2021/04/01 12:09:00;;;;;;;2.03;0.77;;;;;;;26.91;40.36;101874.53;5071420;28;20471;-61
2021/04/01 12:11:27;;;;;;;2.33;0.90;;;;;;;27.09;39.83;101869.38;5069532;28;20028;-62
2021/04/01 12:13:53;;;;;;;3.17;1.00;;;;;;;26.97;40.83;101865.44;5069519;28;20059;-62
2021/04/01 12:16:23;;;;;;;3.72;1.00;;;;;;;26.91;41.71;101858.00;5071220;28;20028;-65
2021/04/01 12:18:50;;;;;;;2.45;0.90;;;;;;;26.78;41.29;101855.16;5068564;28;20024;-65
2021/04/01 12:21:19;;;;;;;4.35;1.20;;;;;;;26.94;40.71;101865.84;5056489;28;20032;-64
2021/04/01 12:23:53;;;;;;;3.00;0.90;;;;;;;26.93;41.00;101875.19;5075006;28;20021;-65
2021/04/01 12:26:19;;;;;;;2.53;0.52;;;;;;;26.81;41.29;101869.38;5074698;28;20112;-64
2021/04/01 12:28:58;;;;;;;3.08;0.70;;;;;;;26.97;40.44;101871.81;5074391;28;20107;-64
2021/04/01 12:31:40;;;;;;;3.25;0.90;;;;;;;26.91;40.12;101880.91;5078340;28;20024;-67
2021/04/01 12:34:10;;;;;;;2.30;0.70;;;;;;;26.95;41.14;101873.06;5058230;28;20036;-65
2021/04/01 12:36:40;;;;;;;6.50;1.10;;;;;;;26.92;40.79;101862.44;5086468;28;20024;-66
2021/04/01 12:39:07;;;;;;;4.50;0.90;;;;;;;26.68;40.84;101867.38;5074240;28;20479;-66
2021/04/01 12:41:35;;;;;;;2.50;0.80;;;;;;;26.68;41.01;101870.16;5076647;28;20060;-65
2021/04/01 12:44:01;;;;;;;4.85;1.05;;;;;;;26.69;40.40;101858.06;5074565;28;20023;-67
2021/04/01 12:46:44;;;;;;;3.15;1.00;;;;;;;26.72;40.55;101869.75;5075093;28;20384;-64
2021/04/01 12:49:11;;;;;;;4.85;1.52;;;;;;;26.99;39.04;101866.09;5073911;28;20391;-64
2021/04/01 12:51:45;;;;;;;2.58;0.90;;;;;;;26.85;39.94;101867.91;5056038;28;20154;-66
2021/04/01 12:54:14;;;;;;;4.30;1.00;;;;;;;26.97;38.98;101870.97;5072221;28;20051;-65